createdAt,value
2022-11-21T00:01:18.318Z,34.90
2022-11-21T00:04:48.975Z,32.90
2022-11-21T00:08:19.933Z,33.90
2022-11-21T00:11:53.276Z,35.00
2022-11-21T00:15:20.863Z,34.20
2022-11-21T00:18:48.499Z,32.90
2022-11-21T00:22:16.482Z,31.20
2022-11-21T00:25:44.364Z,31.60
2022-11-21T00:29:15.497Z,30.70
2022-11-21T00:32:44.694Z,31.10
2022-11-21T00:36:13.541Z,31.00
2022-11-21T00:39:41.522Z,31.70
2022-11-21T00:43:45.996Z,31.10
2022-11-21T00:47:13.271Z,32.70
2022-11-21T00:50:40.201Z,33.10
2022-11-21T00:54:07.840Z,33.30
2022-11-21T00:57:35.201Z,32.50
2022-11-21T01:01:11.049Z,32.30
2022-11-21T01:04:38.855Z,32.50
2022-11-21T01:08:06.035Z,31.30
2022-11-21T01:11:33.452Z,33.70
2022-11-21T01:15:00.169Z,33.20
2022-11-21T01:18:32.750Z,33.00
2022-11-21T01:22:05.920Z,32.20
2022-11-21T01:25:34.843Z,30.40
2022-11-21T01:29:01.932Z,30.60
2022-11-21T01:32:29.549Z,30.90
2022-11-21T01:35:56.591Z,32.30
2022-11-21T01:39:26.216Z,34.00
2022-11-21T01:43:05.872Z,33.10
2022-11-21T01:46:33.657Z,33.90
2022-11-21T01:50:01.430Z,31.40
2022-11-21T01:53:34.114Z,31.40
2022-11-21T01:57:09.343Z,32.30
2022-11-21T02:00:42.264Z,34.30
2022-11-21T02:04:17.107Z,31.50
2022-11-21T02:07:47.056Z,33.80
2022-11-21T02:11:24.869Z,33.80
2022-11-21T02:14:53.459Z,37.50
2022-11-21T02:18:20.684Z,33.00
2022-11-21T02:21:56.472Z,35.50
2022-11-21T02:25:26.015Z,37.00
2022-11-21T02:28:53.103Z,34.60
2022-11-21T02:32:27.821Z,36.90
2022-11-21T02:36:03.581Z,36.60
2022-11-21T02:39:35.367Z,36.60
2022-11-21T02:43:10.405Z,35.30
2022-11-21T02:46:38.030Z,35.60
2022-11-21T02:50:12.231Z,34.80
2022-11-21T02:53:39.797Z,35.10
2022-11-21T02:57:07.598Z,35.30
2022-11-21T03:00:36.472Z,34.10
2022-11-21T03:04:03.712Z,34.60
2022-11-21T03:07:32.721Z,35.30
2022-11-21T03:10:59.939Z,34.40
2022-11-21T03:14:26.968Z,33.40
2022-11-21T03:17:54.428Z,33.30
2022-11-21T03:21:21.701Z,31.60
2022-11-21T03:24:49.213Z,32.50
2022-11-21T03:28:16.850Z,30.70
2022-11-21T03:31:43.846Z,31.50
2022-11-21T03:35:11.561Z,31.70
2022-11-21T03:38:38.250Z,33.80
2022-11-21T03:42:05.471Z,33.40
2022-11-21T03:45:32.423Z,33.40
2022-11-21T03:49:00.651Z,34.20
2022-11-21T03:52:28.043Z,33.50
2022-11-21T03:55:54.848Z,32.90
2022-11-21T03:59:21.546Z,34.80
2022-11-21T04:02:48.317Z,32.50
2022-11-21T04:06:16.395Z,32.50
2022-11-21T04:09:42.736Z,34.40
2022-11-21T04:13:09.412Z,34.50
2022-11-21T04:16:36.363Z,31.40
2022-11-21T04:20:04.535Z,32.50
2022-11-21T04:23:31.900Z,33.20
2022-11-21T04:26:58.638Z,34.00
2022-11-21T04:30:25.021Z,31.70
2022-11-21T04:33:51.454Z,31.80
2022-11-21T04:37:18.066Z,29.90
2022-11-21T04:40:48.547Z,31.60
2022-11-21T04:44:15.441Z,31.70
2022-11-21T04:47:43.194Z,31.50
2022-11-21T04:51:10.268Z,31.40
2022-11-21T04:54:37.183Z,31.90
2022-11-21T04:58:03.760Z,30.60
2022-11-21T05:01:30.760Z,29.20
2022-11-21T05:04:58.260Z,29.50
2022-11-21T05:08:25.143Z,30.00
2022-11-21T05:12:09.841Z,30.60
2022-11-21T05:15:36.481Z,31.80
2022-11-21T05:19:03.081Z,33.30
2022-11-21T05:22:30.134Z,32.60
2022-11-21T05:25:56.788Z,33.20
2022-11-21T05:29:28.036Z,33.60
2022-11-21T05:32:56.320Z,35.90
2022-11-21T05:36:23.081Z,39.10
2022-11-21T05:39:49.473Z,38.90
2022-11-21T05:43:34.685Z,42.70
2022-11-21T05:47:01.533Z,40.10
2022-11-21T05:50:28.387Z,43.50
2022-11-21T05:53:55.551Z,42.90
2022-11-21T05:57:22.510Z,42.50
2022-11-21T06:00:49.599Z,42.60
2022-11-21T06:04:16.815Z,42.90
2022-11-21T06:07:43.943Z,42.90
2022-11-21T06:11:14.566Z,44.70
2022-11-21T06:14:41.405Z,46.90
2022-11-21T06:18:08.043Z,44.50
2022-11-21T06:21:37.501Z,46.10
2022-11-21T06:25:03.954Z,45.80
2022-11-21T06:28:32.554Z,43.20
2022-11-21T06:31:59.316Z,42.50
2022-11-21T06:35:26.179Z,45.80
2022-11-21T06:38:54.259Z,42.70
2022-11-21T06:42:21.111Z,42.60
2022-11-21T06:45:47.860Z,42.90
2022-11-21T06:49:14.770Z,46.00
2022-11-21T06:52:42.190Z,44.10
2022-11-21T06:56:09.073Z,45.40
2022-11-21T06:59:36.035Z,44.50
2022-11-21T07:03:05.239Z,45.50
2022-11-21T07:06:35.365Z,46.60
2022-11-21T07:10:02.115Z,48.90
2022-11-21T07:13:30.600Z,50.60
2022-11-21T07:16:57.268Z,53.20
2022-11-21T07:20:24.224Z,48.80
2022-11-21T07:23:50.872Z,46.70
2022-11-21T07:27:18.716Z,48.20
2022-11-21T07:30:45.753Z,47.00
2022-11-21T07:34:13.234Z,48.10
2022-11-21T07:37:42.468Z,69.70
2022-11-21T07:41:09.013Z,55.10
2022-11-21T07:44:36.073Z,44.10
2022-11-21T07:48:03.979Z,45.50
2022-11-21T07:51:31.991Z,38.60
2022-11-21T07:54:59.416Z,44.20
2022-11-21T07:58:26.327Z,42.40
2022-11-21T08:01:53.962Z,39.70
2022-11-21T08:05:20.829Z,40.00
2022-11-21T08:08:48.449Z,42.50
2022-11-21T08:12:15.937Z,43.80
2022-11-21T08:15:42.886Z,44.30
2022-11-21T08:19:09.541Z,42.90
2022-11-21T08:22:39.040Z,44.40
2022-11-21T08:26:06.137Z,43.20
2022-11-21T08:29:33.359Z,41.00
2022-11-21T08:33:01.284Z,41.90
2022-11-21T08:36:28.328Z,41.30
2022-11-21T08:39:55.350Z,43.40
2022-11-21T08:43:22.198Z,42.60
2022-11-21T08:46:48.826Z,43.20
2022-11-21T08:50:16.449Z,41.40
2022-11-21T08:53:43.065Z,44.00
2022-11-21T08:57:09.538Z,42.90
2022-11-21T09:00:36.518Z,42.80
2022-11-21T09:04:03.598Z,42.60
2022-11-21T09:07:30.767Z,40.10
2022-11-21T09:10:59.047Z,40.00
2022-11-21T09:14:43.920Z,42.50
2022-11-21T09:18:12.573Z,41.50
2022-11-21T09:21:39.289Z,41.00
2022-11-21T09:25:06.683Z,41.00
2022-11-21T09:28:33.352Z,40.90
2022-11-21T09:32:00.217Z,43.20
2022-11-21T09:35:30.511Z,41.80
2022-11-21T09:38:59.906Z,44.20
2022-11-21T09:42:54.563Z,42.70
2022-11-21T09:46:27.811Z,42.40
2022-11-21T09:49:58.620Z,42.70
2022-11-21T09:53:31.875Z,41.50
2022-11-21T09:57:02.436Z,43.10
2022-11-21T10:00:29.526Z,41.60
2022-11-21T10:04:28.172Z,42.90
2022-11-21T10:08:01.442Z,41.40
2022-11-21T10:11:59.207Z,45.00
2022-11-21T10:15:44.413Z,43.50
2022-11-21T10:19:50.875Z,44.90
2022-11-21T10:23:35.812Z,42.70
2022-11-21T10:27:13.550Z,42.70
2022-11-21T10:30:47.918Z,45.20
2022-11-21T10:34:19.176Z,44.00
2022-11-21T10:37:51.646Z,45.00
2022-11-21T10:41:26.035Z,41.70
2022-11-21T10:45:11.053Z,44.80
2022-11-21T10:48:39.708Z,47.10
2022-11-21T10:52:16.383Z,43.40
2022-11-21T10:56:01.676Z,43.20
2022-11-21T10:59:33.325Z,44.10
2022-11-21T11:03:07.373Z,45.60
2022-11-21T11:10:27.562Z,47.10
2022-11-21T11:14:00.680Z,45.30
2022-11-21T11:17:33.121Z,47.90
2022-11-21T11:21:15.429Z,46.60
2022-11-21T11:24:57.624Z,47.80
2022-11-21T11:28:34.994Z,45.60
2022-11-21T11:32:05.147Z,49.10
2022-11-21T11:35:36.070Z,51.70
2022-11-21T11:39:08.155Z,50.70
2022-11-21T11:46:52.524Z,53.80
2022-11-21T11:50:24.379Z,58.60
2022-11-21T11:53:59.904Z,58.50
2022-11-21T11:57:38.563Z,56.70
2022-11-21T12:01:12.883Z,53.50
2022-11-21T12:04:47.323Z,51.70
2022-11-21T12:12:18.003Z,53.20
2022-11-21T12:15:54.554Z,51.60
2022-11-21T12:19:25.202Z,58.50
2022-11-21T12:22:55.490Z,59.80
2022-11-21T12:26:52.629Z,60.10
2022-11-21T12:30:54.425Z,62.10
2022-11-21T12:34:38.469Z,55.70
2022-11-21T12:38:30.505Z,56.70
2022-11-21T12:42:19.369Z,54.40
2022-11-21T12:45:52.413Z,56.40
2022-11-21T12:49:54.401Z,56.20
2022-11-21T12:53:49.876Z,54.10
2022-11-21T12:57:18.307Z,52.10
2022-11-21T13:01:03.143Z,52.30
2022-11-21T13:04:36.726Z,51.20
2022-11-21T13:08:07.680Z,52.80
2022-11-21T13:12:01.004Z,49.70
2022-11-21T13:15:38.466Z,51.00
2022-11-21T13:19:17.595Z,50.00
2022-11-21T13:23:28.878Z,49.90
2022-11-21T13:26:58.489Z,51.20
2022-11-21T13:30:28.904Z,50.70
2022-11-21T13:33:56.757Z,50.10
2022-11-21T13:37:54.593Z,49.80
2022-11-21T13:42:22.197Z,49.70
2022-11-21T13:45:50.789Z,55.40
2022-11-21T13:49:22.733Z,54.70
2022-11-21T13:52:57.599Z,56.20
2022-11-21T13:56:37.465Z,57.20
2022-11-21T14:00:22.048Z,59.00
2022-11-21T14:04:16.333Z,58.80
2022-11-21T14:07:45.328Z,61.00
2022-11-21T14:11:37.259Z,61.60
2022-11-21T14:15:27.676Z,65.60
2022-11-21T14:18:55.292Z,65.30
2022-11-21T14:22:34.754Z,61.80
2022-11-21T14:26:06.366Z,63.10
2022-11-21T14:29:42.924Z,61.00
2022-11-21T14:33:34.524Z,61.30
2022-11-21T14:37:05.408Z,58.60
2022-11-21T14:40:32.562Z,58.70
2022-11-21T14:44:18.863Z,61.50
2022-11-21T14:47:54.499Z,63.10
2022-11-21T14:51:27.816Z,60.80
2022-11-21T14:58:43.751Z,60.70
2022-11-21T15:02:17.781Z,61.30
2022-11-21T15:06:01.752Z,64.20
2022-11-21T15:13:45.175Z,61.90
2022-11-21T15:17:18.782Z,64.50
2022-11-21T15:20:50.329Z,62.70
2022-11-21T15:24:29.382Z,62.80
2022-11-21T15:28:11.808Z,61.80
2022-11-21T15:31:38.891Z,65.00
2022-11-21T15:35:40.570Z,65.00
2022-11-21T15:39:14.666Z,65.50
2022-11-21T15:42:42.373Z,68.90
2022-11-21T15:46:17.635Z,65.90
2022-11-21T15:49:44.440Z,61.00
2022-11-21T15:53:21.658Z,63.80
2022-11-21T15:56:49.914Z,61.40
2022-11-21T16:00:19.566Z,68.70
2022-11-21T16:03:49.991Z,60.50
2022-11-21T16:07:18.675Z,60.60
2022-11-21T16:10:45.888Z,60.50
2022-11-21T16:14:17.308Z,61.30
2022-11-21T16:17:47.376Z,61.50
2022-11-21T16:21:15.410Z,62.70
2022-11-21T16:24:43.009Z,61.70
2022-11-21T16:28:12.851Z,64.80
2022-11-21T16:31:40.114Z,61.60
2022-11-21T16:35:10.943Z,63.60
2022-11-21T16:38:39.815Z,68.20
2022-11-21T16:42:11.722Z,63.60
2022-11-21T16:45:41.522Z,62.60
2022-11-21T16:49:09.272Z,69.30
2022-11-21T16:52:42.293Z,65.70
2022-11-21T16:56:12.158Z,69.10
2022-11-21T16:59:41.957Z,68.70
2022-11-21T17:03:11.700Z,68.90
2022-11-21T17:06:41.072Z,69.20
2022-11-21T17:10:09.386Z,65.60
2022-11-21T17:13:36.648Z,67.70
2022-11-21T17:17:03.755Z,65.20
2022-11-21T17:20:30.759Z,64.10
2022-11-21T17:23:57.729Z,65.40
2022-11-21T17:27:29.657Z,63.40
2022-11-21T17:30:57.327Z,64.80
2022-11-21T17:34:28.424Z,68.00
2022-11-21T17:38:02.167Z,68.50
2022-11-21T17:41:33.194Z,68.60
2022-11-21T17:45:00.273Z,69.00
2022-11-21T17:48:32.576Z,72.80
2022-11-21T17:52:01.898Z,72.10
2022-11-21T17:55:28.858Z,74.10
2022-11-21T17:58:56.751Z,74.90
2022-11-21T18:02:27.471Z,72.40
2022-11-21T18:06:05.150Z,71.80
2022-11-21T18:09:34.910Z,70.10
2022-11-21T18:13:10.952Z,73.90
2022-11-21T18:16:52.793Z,75.10
2022-11-21T18:20:21.326Z,72.20
2022-11-21T18:23:48.394Z,66.10
2022-11-21T18:27:15.990Z,65.60
2022-11-21T18:30:45.269Z,67.90
2022-11-21T18:34:13.240Z,87.50
2022-11-21T18:37:44.848Z,74.40
2022-11-21T18:41:18.902Z,73.80
2022-11-21T18:44:47.081Z,72.00
2022-11-21T18:48:17.113Z,72.70
2022-11-21T18:51:48.100Z,75.00
2022-11-21T18:55:25.257Z,75.10
2022-11-21T18:58:58.769Z,76.20
2022-11-21T19:02:28.493Z,77.40
2022-11-21T19:05:56.575Z,75.40
2022-11-21T19:09:26.912Z,78.70
2022-11-21T19:13:01.772Z,77.80
2022-11-21T19:16:34.570Z,80.40
2022-11-21T19:20:02.279Z,78.90
2022-11-21T19:23:30.111Z,79.50
2022-11-21T19:27:03.257Z,79.10
2022-11-21T19:30:32.763Z,78.00
2022-11-21T19:34:09.482Z,77.40
2022-11-21T19:37:37.851Z,76.30
2022-11-21T19:41:16.847Z,76.90
2022-11-21T19:44:46.648Z,77.50
2022-11-21T19:48:24.640Z,77.80
2022-11-21T19:51:52.612Z,78.00
2022-11-21T19:55:26.509Z,74.60
2022-11-21T19:59:03.694Z,76.70
2022-11-21T20:02:34.486Z,76.40
2022-11-21T20:06:08.044Z,79.10
2022-11-21T20:09:38.251Z,79.80
2022-11-21T20:13:05.237Z,79.00
2022-11-21T20:16:35.102Z,76.80
2022-11-21T20:20:07.698Z,77.80
2022-11-21T20:23:35.283Z,77.70
2022-11-21T20:27:06.831Z,80.90
2022-11-21T20:30:35.328Z,73.90
2022-11-21T20:34:06.101Z,74.80
2022-11-21T20:37:34.916Z,74.80
2022-11-21T20:41:02.145Z,70.20
2022-11-21T20:45:41.656Z,68.40
2022-11-21T20:48:20.218Z,71.30
2022-11-21T20:53:26.320Z,69.10
2022-11-21T20:55:39.529Z,71.30
2022-11-21T20:59:07.935Z,71.50
2022-11-21T21:02:37.819Z,62.10
2022-11-21T21:06:07.387Z,60.70
2022-11-21T21:09:36.909Z,63.90
2022-11-21T21:13:07.317Z,62.50
2022-11-21T21:16:38.059Z,59.60
2022-11-21T21:20:14.119Z,62.00
2022-11-21T21:23:45.509Z,62.40
2022-11-21T21:27:14.302Z,64.00
2022-11-21T21:30:45.443Z,71.40
2022-11-21T21:34:19.178Z,76.40
2022-11-21T21:37:50.842Z,71.40
2022-11-21T21:41:21.232Z,72.50
2022-11-21T21:44:53.148Z,72.00
2022-11-21T21:48:20.016Z,67.80
2022-11-21T21:51:51.084Z,67.60
2022-11-21T21:55:20.703Z,69.20
2022-11-21T21:58:53.798Z,67.00
2022-11-21T22:02:24.764Z,69.00
2022-11-21T22:05:54.364Z,69.00
2022-11-21T22:09:21.657Z,70.30
2022-11-21T22:12:54.511Z,66.10
2022-11-21T22:16:23.241Z,64.00
2022-11-21T22:19:51.930Z,61.20
2022-11-21T22:23:20.074Z,65.40
2022-11-21T22:26:46.894Z,63.00
2022-11-21T22:30:17.066Z,62.10
2022-11-21T22:33:46.222Z,63.80
2022-11-21T22:37:13.836Z,62.70
2022-11-21T22:40:44.272Z,63.30
2022-11-21T22:44:12.073Z,64.50
2022-11-21T22:47:47.567Z,66.30
2022-11-21T22:51:24.270Z,62.70
2022-11-21T22:54:51.761Z,65.20
2022-11-21T22:58:18.982Z,65.20
2022-11-21T23:01:49.602Z,67.40
2022-11-21T23:05:17.314Z,64.70
2022-11-21T23:08:45.745Z,64.30
2022-11-21T23:12:15.610Z,65.20
2022-11-21T23:15:43.536Z,64.70
2022-11-21T23:19:13.167Z,66.90
2022-11-21T23:22:40.687Z,68.00
2022-11-21T23:26:08.434Z,68.90
2022-11-21T23:29:36.115Z,64.60
2022-11-21T23:33:03.476Z,61.00
2022-11-21T23:36:31.131Z,59.90
2022-11-21T23:39:58.951Z,62.40
2022-11-21T23:43:27.956Z,62.50
2022-11-21T23:46:56.700Z,59.40
2022-11-21T23:50:28.976Z,60.80
2022-11-21T23:53:58.676Z,64.30
2022-11-21T23:57:26.436Z,61.90
